sensor_id;sensor_type;location;lat;lon;timestamp;temperature;humidity
12329;DHT22;6230;52.390;10.256;2022-07-04T00:01:04;24.70;48.20
12329;DHT22;6230;52.390;10.256;2022-07-04T00:03:30;24.70;48.30
12329;DHT22;6230;52.390;10.256;2022-07-04T00:05:56;24.60;48.30
12329;DHT22;6230;52.390;10.256;2022-07-04T00:08:21;24.60;48.40
12329;DHT22;6230;52.390;10.256;2022-07-04T00:10:47;24.60;48.40
12329;DHT22;6230;52.390;10.256;2022-07-04T00:13:12;24.50;48.40
12329;DHT22;6230;52.390;10.256;2022-07-04T00:15:38;24.50;48.40
12329;DHT22;6230;52.390;10.256;2022-07-04T00:18:04;24.50;48.40
12329;DHT22;6230;52.390;10.256;2022-07-04T00:20:29;24.50;48.60
12329;DHT22;6230;52.390;10.256;2022-07-04T00:22:55;24.40;48.70
12329;DHT22;6230;52.390;10.256;2022-07-04T00:25:20;24.40;48.60
12329;DHT22;6230;52.390;10.256;2022-07-04T00:27:46;24.30;48.60
12329;DHT22;6230;52.390;10.256;2022-07-04T00:30:12;24.30;48.60
12329;DHT22;6230;52.390;10.256;2022-07-04T00:32:38;24.20;48.60
12329;DHT22;6230;52.390;10.256;2022-07-04T00:35:04;24.20;48.70
12329;DHT22;6230;52.390;10.256;2022-07-04T00:37:30;24.10;48.70
12329;DHT22;6230;52.390;10.256;2022-07-04T00:39:56;24.10;48.80
12329;DHT22;6230;52.390;10.256;2022-07-04T00:42:21;24.10;48.90
12329;DHT22;6230;52.390;10.256;2022-07-04T00:44:47;24.10;48.90
12329;DHT22;6230;52.390;10.256;2022-07-04T00:47:12;24.10;48.90
12329;DHT22;6230;52.390;10.256;2022-07-04T00:49:38;24.00;48.90
12329;DHT22;6230;52.390;10.256;2022-07-04T00:52:05;23.90;48.90
12329;DHT22;6230;52.390;10.256;2022-07-04T00:54:31;23.90;49.00
12329;DHT22;6230;52.390;10.256;2022-07-04T00:56:58;23.90;49.10
12329;DHT22;6230;52.390;10.256;2022-07-04T00:59:25;23.80;49.30
12329;DHT22;6230;52.390;10.256;2022-07-04T01:01:51;23.70;49.40
12329;DHT22;6230;52.390;10.256;2022-07-04T01:04:17;23.70;49.80
12329;DHT22;6230;52.390;10.256;2022-07-04T01:06:43;23.70;49.60
12329;DHT22;6230;52.390;10.256;2022-07-04T01:09:10;23.70;49.60
12329;DHT22;6230;52.390;10.256;2022-07-04T01:11:36;23.70;49.70
12329;DHT22;6230;52.390;10.256;2022-07-04T01:14:02;23.70;49.80
12329;DHT22;6230;52.390;10.256;2022-07-04T01:16:28;23.60;49.70
12329;DHT22;6230;52.390;10.256;2022-07-04T01:18:54;23.60;49.70
12329;DHT22;6230;52.390;10.256;2022-07-04T01:21:21;23.50;49.80
12329;DHT22;6230;52.390;10.256;2022-07-04T01:23:46;23.50;49.90
12329;DHT22;6230;52.390;10.256;2022-07-04T01:26:12;23.50;50.00
12329;DHT22;6230;52.390;10.256;2022-07-04T01:28:38;23.40;50.00
12329;DHT22;6230;52.390;10.256;2022-07-04T01:31:04;23.40;50.10
12329;DHT22;6230;52.390;10.256;2022-07-04T01:33:30;23.30;50.10
12329;DHT22;6230;52.390;10.256;2022-07-04T01:35:56;23.30;50.20
12329;DHT22;6230;52.390;10.256;2022-07-04T01:38:22;23.20;50.20
12329;DHT22;6230;52.390;10.256;2022-07-04T01:40:48;23.20;50.30
12329;DHT22;6230;52.390;10.256;2022-07-04T01:43:14;23.20;50.40
12329;DHT22;6230;52.390;10.256;2022-07-04T01:45:39;23.10;50.40
12329;DHT22;6230;52.390;10.256;2022-07-04T01:48:05;23.10;50.50
12329;DHT22;6230;52.390;10.256;2022-07-04T01:50:31;23.00;50.60
12329;DHT22;6230;52.390;10.256;2022-07-04T01:52:57;23.00;50.70
12329;DHT22;6230;52.390;10.256;2022-07-04T01:55:23;23.00;50.80
12329;DHT22;6230;52.390;10.256;2022-07-04T01:57:48;23.00;50.70
12329;DHT22;6230;52.390;10.256;2022-07-04T02:00:14;23.10;50.70
12329;DHT22;6230;52.390;10.256;2022-07-04T02:02:58;23.00;50.80
12329;DHT22;6230;52.390;10.256;2022-07-04T02:05:24;22.90;50.80
12329;DHT22;6230;52.390;10.256;2022-07-04T02:07:50;22.90;51.00
12329;DHT22;6230;52.390;10.256;2022-07-04T02:10:17;22.80;51.00
12329;DHT22;6230;52.390;10.256;2022-07-04T02:12:42;22.80;51.10
12329;DHT22;6230;52.390;10.256;2022-07-04T02:15:28;22.80;51.30
12329;DHT22;6230;52.390;10.256;2022-07-04T02:17:54;22.80;51.30
12329;DHT22;6230;52.390;10.256;2022-07-04T02:20:20;22.80;51.30
12329;DHT22;6230;52.390;10.256;2022-07-04T02:22:45;22.80;51.30
12329;DHT22;6230;52.390;10.256;2022-07-04T02:25:11;22.80;51.30
12329;DHT22;6230;52.390;10.256;2022-07-04T02:27:37;22.80;51.30
12329;DHT22;6230;52.390;10.256;2022-07-04T02:30:04;22.70;51.30
12329;DHT22;6230;52.390;10.256;2022-07-04T02:32:30;22.70;51.40
12329;DHT22;6230;52.390;10.256;2022-07-04T02:34:56;22.70;51.40
12329;DHT22;6230;52.390;10.256;2022-07-04T02:37:21;22.60;51.40
12329;DHT22;6230;52.390;10.256;2022-07-04T02:39:47;22.70;51.50
12329;DHT22;6230;52.390;10.256;2022-07-04T02:42:12;22.60;51.50
12329;DHT22;6230;52.390;10.256;2022-07-04T02:44:38;22.60;51.50
12329;DHT22;6230;52.390;10.256;2022-07-04T02:47:04;22.60;51.60
12329;DHT22;6230;52.390;10.256;2022-07-04T02:49:29;22.50;51.60
12329;DHT22;6230;52.390;10.256;2022-07-04T02:51:55;22.50;51.70
12329;DHT22;6230;52.390;10.256;2022-07-04T02:54:20;22.50;51.80
12329;DHT22;6230;52.390;10.256;2022-07-04T02:56:46;22.40;51.90
12329;DHT22;6230;52.390;10.256;2022-07-04T02:59:11;22.40;52.00
12329;DHT22;6230;52.390;10.256;2022-07-04T03:01:37;22.40;52.20
12329;DHT22;6230;52.390;10.256;2022-07-04T03:04:03;22.30;52.10
12329;DHT22;6230;52.390;10.256;2022-07-04T03:06:29;22.30;52.20
12329;DHT22;6230;52.390;10.256;2022-07-04T03:08:55;22.30;52.30
12329;DHT22;6230;52.390;10.256;2022-07-04T03:11:21;22.20;52.40
12329;DHT22;6230;52.390;10.256;2022-07-04T03:13:47;22.20;52.40
12329;DHT22;6230;52.390;10.256;2022-07-04T03:16:12;22.20;52.50
12329;DHT22;6230;52.390;10.256;2022-07-04T03:18:38;22.20;52.50
12329;DHT22;6230;52.390;10.256;2022-07-04T03:21:04;22.20;52.40
12329;DHT22;6230;52.390;10.256;2022-07-04T03:23:33;22.20;52.50
12329;DHT22;6230;52.390;10.256;2022-07-04T03:26:00;22.10;52.70
12329;DHT22;6230;52.390;10.256;2022-07-04T03:28:26;22.10;52.70
12329;DHT22;6230;52.390;10.256;2022-07-04T03:30:52;22.00;52.80
12329;DHT22;6230;52.390;10.256;2022-07-04T03:33:18;22.00;52.80
12329;DHT22;6230;52.390;10.256;2022-07-04T03:35:43;22.00;52.90
12329;DHT22;6230;52.390;10.256;2022-07-04T03:38:09;22.00;52.90
12329;DHT22;6230;52.390;10.256;2022-07-04T03:40:35;22.00;53.00
12329;DHT22;6230;52.390;10.256;2022-07-04T03:43:01;22.00;53.00
12329;DHT22;6230;52.390;10.256;2022-07-04T03:45:27;22.00;53.10
12329;DHT22;6230;52.390;10.256;2022-07-04T03:47:53;22.00;53.10
12329;DHT22;6230;52.390;10.256;2022-07-04T03:50:18;22.00;53.30
12329;DHT22;6230;52.390;10.256;2022-07-04T03:52:44;22.00;53.40
12329;DHT22;6230;52.390;10.256;2022-07-04T03:55:10;21.90;53.40
12329;DHT22;6230;52.390;10.256;2022-07-04T03:57:36;21.90;53.50
12329;DHT22;6230;52.390;10.256;2022-07-04T04:00:03;21.80;53.60
12329;DHT22;6230;52.390;10.256;2022-07-04T04:02:28;21.80;53.80
12329;DHT22;6230;52.390;10.256;2022-07-04T04:04:54;21.80;53.90
12329;DHT22;6230;52.390;10.256;2022-07-04T04:07:38;21.80;54.00
12329;DHT22;6230;52.390;10.256;2022-07-04T04:10:04;21.80;53.90
12329;DHT22;6230;52.390;10.256;2022-07-04T04:12:29;21.80;54.00
12329;DHT22;6230;52.390;10.256;2022-07-04T04:14:55;21.80;54.10
12329;DHT22;6230;52.390;10.256;2022-07-04T04:17:21;21.80;54.20
12329;DHT22;6230;52.390;10.256;2022-07-04T04:19:46;21.80;54.20
12329;DHT22;6230;52.390;10.256;2022-07-04T04:22:12;21.80;54.30
12329;DHT22;6230;52.390;10.256;2022-07-04T04:24:37;21.80;54.40
12329;DHT22;6230;52.390;10.256;2022-07-04T04:27:03;21.80;54.40
12329;DHT22;6230;52.390;10.256;2022-07-04T04:29:29;21.80;54.60
12329;DHT22;6230;52.390;10.256;2022-07-04T04:31:54;21.80;54.60
12329;DHT22;6230;52.390;10.256;2022-07-04T04:34:20;21.80;54.70
12329;DHT22;6230;52.390;10.256;2022-07-04T04:36:45;21.80;54.90
12329;DHT22;6230;52.390;10.256;2022-07-04T04:39:11;21.80;54.90
12329;DHT22;6230;52.390;10.256;2022-07-04T04:41:36;21.90;55.00
12329;DHT22;6230;52.390;10.256;2022-07-04T04:44:02;21.90;54.90
12329;DHT22;6230;52.390;10.256;2022-07-04T04:46:28;21.90;55.00
12329;DHT22;6230;52.390;10.256;2022-07-04T04:48:54;22.00;55.10
12329;DHT22;6230;52.390;10.256;2022-07-04T04:51:19;22.00;55.10
12329;DHT22;6230;52.390;10.256;2022-07-04T04:53:45;22.00;55.20
12329;DHT22;6230;52.390;10.256;2022-07-04T04:56:10;22.00;55.30
12329;DHT22;6230;52.390;10.256;2022-07-04T04:58:36;22.10;55.40
12329;DHT22;6230;52.390;10.256;2022-07-04T05:01:01;22.10;55.30
12329;DHT22;6230;52.390;10.256;2022-07-04T05:03:28;22.10;55.20
12329;DHT22;6230;52.390;10.256;2022-07-04T05:05:54;22.20;55.20
12329;DHT22;6230;52.390;10.256;2022-07-04T05:08:19;22.20;55.10
12329;DHT22;6230;52.390;10.256;2022-07-04T05:10:45;22.20;55.20
12329;DHT22;6230;52.390;10.256;2022-07-04T05:13:11;22.30;55.30
12329;DHT22;6230;52.390;10.256;2022-07-04T05:15:36;22.20;55.20
12329;DHT22;6230;52.390;10.256;2022-07-04T05:18:02;22.30;55.30
12329;DHT22;6230;52.390;10.256;2022-07-04T05:20:27;22.30;55.30
12329;DHT22;6230;52.390;10.256;2022-07-04T05:22:53;22.30;55.30
12329;DHT22;6230;52.390;10.256;2022-07-04T05:25:19;22.30;55.40
12329;DHT22;6230;52.390;10.256;2022-07-04T05:27:44;22.40;55.40
12329;DHT22;6230;52.390;10.256;2022-07-04T05:30:10;22.40;55.40
12329;DHT22;6230;52.390;10.256;2022-07-04T05:32:38;22.40;55.50
12329;DHT22;6230;52.390;10.256;2022-07-04T05:35:06;22.40;55.50
12329;DHT22;6230;52.390;10.256;2022-07-04T05:37:32;22.40;55.60
12329;DHT22;6230;52.390;10.256;2022-07-04T05:39:57;22.40;55.50
12329;DHT22;6230;52.390;10.256;2022-07-04T05:42:24;22.40;55.60
12329;DHT22;6230;52.390;10.256;2022-07-04T05:44:49;22.40;56.30
12329;DHT22;6230;52.390;10.256;2022-07-04T05:47:15;22.50;55.60
12329;DHT22;6230;52.390;10.256;2022-07-04T05:49:41;22.50;55.60
12329;DHT22;6230;52.390;10.256;2022-07-04T05:52:06;22.60;55.50
12329;DHT22;6230;52.390;10.256;2022-07-04T05:54:32;22.70;55.40
12329;DHT22;6230;52.390;10.256;2022-07-04T05:56:58;22.70;55.40
12329;DHT22;6230;52.390;10.256;2022-07-04T05:59:23;22.70;55.40
12329;DHT22;6230;52.390;10.256;2022-07-04T06:01:49;22.70;55.40
12329;DHT22;6230;52.390;10.256;2022-07-04T06:04:14;22.80;55.30
12329;DHT22;6230;52.390;10.256;2022-07-04T06:06:40;22.90;55.20
12329;DHT22;6230;52.390;10.256;2022-07-04T06:09:06;22.90;55.00
12329;DHT22;6230;52.390;10.256;2022-07-04T06:11:31;23.00;54.80
12329;DHT22;6230;52.390;10.256;2022-07-04T06:13:57;23.00;54.60
12329;DHT22;6230;52.390;10.256;2022-07-04T06:16:23;23.00;54.40
12329;DHT22;6230;52.390;10.256;2022-07-04T06:18:49;23.10;54.20
12329;DHT22;6230;52.390;10.256;2022-07-04T06:21:14;23.10;54.00
12329;DHT22;6230;52.390;10.256;2022-07-04T06:23:40;23.10;53.90
12329;DHT22;6230;52.390;10.256;2022-07-04T06:26:06;23.20;53.90
12329;DHT22;6230;52.390;10.256;2022-07-04T06:28:31;23.30;53.60
12329;DHT22;6230;52.390;10.256;2022-07-04T06:30:57;23.30;53.20
12329;DHT22;6230;52.390;10.256;2022-07-04T06:33:23;23.40;53.00
12329;DHT22;6230;52.390;10.256;2022-07-04T06:35:48;23.40;52.80
12329;DHT22;6230;52.390;10.256;2022-07-04T06:38:24;23.40;52.60
12329;DHT22;6230;52.390;10.256;2022-07-04T06:40:53;23.50;52.60
12329;DHT22;6230;52.390;10.256;2022-07-04T06:43:19;23.60;52.40
12329;DHT22;6230;52.390;10.256;2022-07-04T06:45:44;23.70;52.20
12329;DHT22;6230;52.390;10.256;2022-07-04T06:48:10;23.70;51.90
12329;DHT22;6230;52.390;10.256;2022-07-04T06:50:36;23.80;51.60
12329;DHT22;6230;52.390;10.256;2022-07-04T06:53:06;23.70;51.50
12329;DHT22;6230;52.390;10.256;2022-07-04T06:55:39;23.70;51.20
12329;DHT22;6230;52.390;10.256;2022-07-04T06:58:06;23.70;51.10
12329;DHT22;6230;52.390;10.256;2022-07-04T07:00:32;23.70;51.00
12329;DHT22;6230;52.390;10.256;2022-07-04T07:02:59;23.80;50.90
12329;DHT22;6230;52.390;10.256;2022-07-04T07:05:28;24.00;50.70
12329;DHT22;6230;52.390;10.256;2022-07-04T07:07:54;24.20;50.20
12329;DHT22;6230;52.390;10.256;2022-07-04T07:10:21;24.30;49.90
12329;DHT22;6230;52.390;10.256;2022-07-04T07:12:47;24.40;49.50
12329;DHT22;6230;52.390;10.256;2022-07-04T07:15:13;24.50;49.30
12329;DHT22;6230;52.390;10.256;2022-07-04T07:17:42;24.60;49.30
12329;DHT22;6230;52.390;10.256;2022-07-04T07:20:08;24.70;49.20
12329;DHT22;6230;52.390;10.256;2022-07-04T07:22:34;24.70;49.40
12329;DHT22;6230;52.390;10.256;2022-07-04T07:24:59;24.70;48.60
12329;DHT22;6230;52.390;10.256;2022-07-04T07:27:25;24.90;48.50
12329;DHT22;6230;52.390;10.256;2022-07-04T07:29:51;24.80;48.30
12329;DHT22;6230;52.390;10.256;2022-07-04T07:32:16;24.90;48.00
12329;DHT22;6230;52.390;10.256;2022-07-04T07:34:43;25.00;47.80
12329;DHT22;6230;52.390;10.256;2022-07-04T07:37:08;25.00;47.60
12329;DHT22;6230;52.390;10.256;2022-07-04T07:39:34;24.90;47.50
12329;DHT22;6230;52.390;10.256;2022-07-04T07:42:00;25.00;47.40
12329;DHT22;6230;52.390;10.256;2022-07-04T07:44:25;25.10;47.20
12329;DHT22;6230;52.390;10.256;2022-07-04T07:46:51;25.20;47.00
12329;DHT22;6230;52.390;10.256;2022-07-04T07:49:17;25.30;46.80
12329;DHT22;6230;52.390;10.256;2022-07-04T07:51:42;25.10;46.60
12329;DHT22;6230;52.390;10.256;2022-07-04T07:54:08;25.20;46.60
12329;DHT22;6230;52.390;10.256;2022-07-04T07:56:33;25.20;46.70
12329;DHT22;6230;52.390;10.256;2022-07-04T07:59:00;25.40;46.60
12329;DHT22;6230;52.390;10.256;2022-07-04T08:01:26;25.60;46.30
12329;DHT22;6230;52.390;10.256;2022-07-04T08:03:51;25.70;46.00
12329;DHT22;6230;52.390;10.256;2022-07-04T08:06:36;25.70;45.70
12329;DHT22;6230;52.390;10.256;2022-07-04T08:09:02;25.70;45.60
12329;DHT22;6230;52.390;10.256;2022-07-04T08:11:28;25.70;45.60
12329;DHT22;6230;52.390;10.256;2022-07-04T08:13:53;25.80;45.60
12329;DHT22;6230;52.390;10.256;2022-07-04T08:16:19;26.00;45.50
12329;DHT22;6230;52.390;10.256;2022-07-04T08:18:45;26.10;45.10
12329;DHT22;6230;52.390;10.256;2022-07-04T08:21:10;26.20;44.80
12329;DHT22;6230;52.390;10.256;2022-07-04T08:23:36;26.20;44.60
12329;DHT22;6230;52.390;10.256;2022-07-04T08:26:02;26.20;44.60
12329;DHT22;6230;52.390;10.256;2022-07-04T08:28:29;26.40;44.60
12329;DHT22;6230;52.390;10.256;2022-07-04T08:30:55;26.50;44.40
12329;DHT22;6230;52.390;10.256;2022-07-04T08:33:22;26.50;44.20
12329;DHT22;6230;52.390;10.256;2022-07-04T08:35:47;26.50;44.10
12329;DHT22;6230;52.390;10.256;2022-07-04T08:38:14;26.80;44.00
12329;DHT22;6230;52.390;10.256;2022-07-04T08:40:40;26.90;43.30
12329;DHT22;6230;52.390;10.256;2022-07-04T08:43:06;27.00;42.90
12329;DHT22;6230;52.390;10.256;2022-07-04T08:45:33;27.10;42.60
12329;DHT22;6230;52.390;10.256;2022-07-04T08:48:08;27.20;42.30
12329;DHT22;6230;52.390;10.256;2022-07-04T08:50:38;27.40;41.80
12329;DHT22;6230;52.390;10.256;2022-07-04T08:53:11;27.40;41.60
12329;DHT22;6230;52.390;10.256;2022-07-04T08:55:38;27.30;41.60
12329;DHT22;6230;52.390;10.256;2022-07-04T08:58:23;27.10;41.70
12329;DHT22;6230;52.390;10.256;2022-07-04T09:00:53;26.90;41.70
12329;DHT22;6230;52.390;10.256;2022-07-04T09:03:19;26.80;41.90
12329;DHT22;6230;52.390;10.256;2022-07-04T09:05:46;27.00;41.60
12329;DHT22;6230;52.390;10.256;2022-07-04T09:08:11;27.10;41.10
12329;DHT22;6230;52.390;10.256;2022-07-04T09:10:37;27.30;40.90
12329;DHT22;6230;52.390;10.256;2022-07-04T09:13:05;27.50;40.40
12329;DHT22;6230;52.390;10.256;2022-07-04T09:15:31;27.70;39.90
12329;DHT22;6230;52.390;10.256;2022-07-04T09:17:58;27.90;39.70
12329;DHT22;6230;52.390;10.256;2022-07-04T09:20:24;28.10;39.70
12329;DHT22;6230;52.390;10.256;2022-07-04T09:22:51;28.10;39.20
12329;DHT22;6230;52.390;10.256;2022-07-04T09:25:18;28.00;39.10
12329;DHT22;6230;52.390;10.256;2022-07-04T09:27:55;28.00;39.00
12329;DHT22;6230;52.390;10.256;2022-07-04T09:30:27;28.10;38.80
12329;DHT22;6230;52.390;10.256;2022-07-04T09:32:57;28.40;38.50
12329;DHT22;6230;52.390;10.256;2022-07-04T09:35:29;28.50;37.80
12329;DHT22;6230;52.390;10.256;2022-07-04T09:38:00;28.50;37.70
12329;DHT22;6230;52.390;10.256;2022-07-04T09:40:32;28.50;37.20
12329;DHT22;6230;52.390;10.256;2022-07-04T09:43:00;28.40;37.00
12329;DHT22;6230;52.390;10.256;2022-07-04T09:45:26;28.40;36.90
12329;DHT22;6230;52.390;10.256;2022-07-04T09:47:57;28.40;36.50
12329;DHT22;6230;52.390;10.256;2022-07-04T09:50:24;28.60;36.30
12329;DHT22;6230;52.390;10.256;2022-07-04T09:52:54;28.70;36.10
12329;DHT22;6230;52.390;10.256;2022-07-04T09:55:34;28.80;35.60
12329;DHT22;6230;52.390;10.256;2022-07-04T09:58:06;29.00;35.00
12329;DHT22;6230;52.390;10.256;2022-07-04T10:00:44;29.20;34.90
12329;DHT22;6230;52.390;10.256;2022-07-04T10:08:34;29.60;34.10
12329;DHT22;6230;52.390;10.256;2022-07-04T10:11:04;29.50;33.90
12329;DHT22;6230;52.390;10.256;2022-07-04T10:13:30;29.60;33.80
12329;DHT22;6230;52.390;10.256;2022-07-04T10:15:56;29.60;33.70
12329;DHT22;6230;52.390;10.256;2022-07-04T10:18:23;29.50;33.60
12329;DHT22;6230;52.390;10.256;2022-07-04T10:20:50;29.40;33.90
12329;DHT22;6230;52.390;10.256;2022-07-04T10:23:18;29.30;34.20
12329;DHT22;6230;52.390;10.256;2022-07-04T10:25:46;29.30;34.20
12329;DHT22;6230;52.390;10.256;2022-07-04T10:28:13;29.40;34.10
12329;DHT22;6230;52.390;10.256;2022-07-04T10:30:40;29.50;33.80
12329;DHT22;6230;52.390;10.256;2022-07-04T10:33:08;29.80;33.20
12329;DHT22;6230;52.390;10.256;2022-07-04T10:35:57;30.00;32.70
12329;DHT22;6230;52.390;10.256;2022-07-04T10:38:24;30.20;32.40
12329;DHT22;6230;52.390;10.256;2022-07-04T10:40:53;30.40;32.30
12329;DHT22;6230;52.390;10.256;2022-07-04T10:48:35;30.80;31.30
12329;DHT22;6230;52.390;10.256;2022-07-04T10:51:03;31.00;31.30
12329;DHT22;6230;52.390;10.256;2022-07-04T10:53:29;31.00;31.20
12329;DHT22;6230;52.390;10.256;2022-07-04T10:58:40;31.20;31.30
12329;DHT22;6230;52.390;10.256;2022-07-04T11:01:13;31.20;31.40
12329;DHT22;6230;52.390;10.256;2022-07-04T11:03:50;31.30;30.90
12329;DHT22;6230;52.390;10.256;2022-07-04T11:14:34;31.40;29.90
12329;DHT22;6230;52.390;10.256;2022-07-04T11:17:01;31.40;30.10
12329;DHT22;6230;52.390;10.256;2022-07-04T11:19:27;31.30;30.20
12329;DHT22;6230;52.390;10.256;2022-07-04T11:21:57;31.10;30.30
12329;DHT22;6230;52.390;10.256;2022-07-04T11:24:24;30.90;30.40
12329;DHT22;6230;52.390;10.256;2022-07-04T11:26:50;30.70;30.80
12329;DHT22;6230;52.390;10.256;2022-07-04T11:29:17;30.70;30.70
12329;DHT22;6230;52.390;10.256;2022-07-04T11:31:45;30.60;30.80
12329;DHT22;6230;52.390;10.256;2022-07-04T11:34:12;30.70;30.80
12329;DHT22;6230;52.390;10.256;2022-07-04T11:36:39;30.90;30.70
12329;DHT22;6230;52.390;10.256;2022-07-04T11:39:10;31.10;30.10
12329;DHT22;6230;52.390;10.256;2022-07-04T11:41:42;31.20;29.90
12329;DHT22;6230;52.390;10.256;2022-07-04T11:44:31;31.30;29.90
12329;DHT22;6230;52.390;10.256;2022-07-04T11:47:20;31.50;30.10
12329;DHT22;6230;52.390;10.256;2022-07-04T11:52:13;31.60;29.80
12329;DHT22;6230;52.390;10.256;2022-07-04T11:54:41;31.60;29.80
12329;DHT22;6230;52.390;10.256;2022-07-04T11:59:58;31.80;29.80
12329;DHT22;6230;52.390;10.256;2022-07-04T12:02:24;31.90;29.40
12329;DHT22;6230;52.390;10.256;2022-07-04T12:04:50;31.90;29.50
12329;DHT22;6230;52.390;10.256;2022-07-04T12:07:19;31.90;29.40
12329;DHT22;6230;52.390;10.256;2022-07-04T12:09:47;32.00;29.50
12329;DHT22;6230;52.390;10.256;2022-07-04T12:12:13;32.10;29.40
12329;DHT22;6230;52.390;10.256;2022-07-04T12:14:48;32.30;29.30
12329;DHT22;6230;52.390;10.256;2022-07-04T12:17:21;32.50;28.90
12329;DHT22;6230;52.390;10.256;2022-07-04T12:20:03;32.40;28.60
12329;DHT22;6230;52.390;10.256;2022-07-04T12:22:38;32.40;28.50
12329;DHT22;6230;52.390;10.256;2022-07-04T12:25:07;32.20;28.70
12329;DHT22;6230;52.390;10.256;2022-07-04T12:27:33;31.90;28.80
12329;DHT22;6230;52.390;10.256;2022-07-04T12:30:00;31.80;29.10
12329;DHT22;6230;52.390;10.256;2022-07-04T12:32:45;31.70;29.10
12329;DHT22;6230;52.390;10.256;2022-07-04T12:35:35;31.50;29.10
12329;DHT22;6230;52.390;10.256;2022-07-04T12:40:31;31.20;29.60
12329;DHT22;6230;52.390;10.256;2022-07-04T12:42:58;31.30;29.50
12329;DHT22;6230;52.390;10.256;2022-07-04T12:45:23;31.30;29.30
12329;DHT22;6230;52.390;10.256;2022-07-04T12:47:49;31.40;29.10
12329;DHT22;6230;52.390;10.256;2022-07-04T12:50:15;31.50;29.10
12329;DHT22;6230;52.390;10.256;2022-07-04T12:52:41;31.60;29.00
12329;DHT22;6230;52.390;10.256;2022-07-04T12:55:08;31.70;29.00
12329;DHT22;6230;52.390;10.256;2022-07-04T12:57:37;31.70;28.60
12329;DHT22;6230;52.390;10.256;2022-07-04T13:00:03;31.60;28.50
12329;DHT22;6230;52.390;10.256;2022-07-04T13:02:30;31.50;28.50
12329;DHT22;6230;52.390;10.256;2022-07-04T13:04:55;31.30;28.50
12329;DHT22;6230;52.390;10.256;2022-07-04T13:07:22;31.30;28.70
12329;DHT22;6230;52.390;10.256;2022-07-04T13:09:47;31.40;28.80
12329;DHT22;6230;52.390;10.256;2022-07-04T13:12:13;31.50;28.60
12329;DHT22;6230;52.390;10.256;2022-07-04T13:14:56;31.60;28.50
12329;DHT22;6230;52.390;10.256;2022-07-04T13:17:23;31.50;28.50
12329;DHT22;6230;52.390;10.256;2022-07-04T13:19:49;31.70;28.70
12329;DHT22;6230;52.390;10.256;2022-07-04T13:22:18;31.80;28.50
12329;DHT22;6230;52.390;10.256;2022-07-04T13:24:44;32.00;28.40
12329;DHT22;6230;52.390;10.256;2022-07-04T13:27:10;32.10;28.30
12329;DHT22;6230;52.390;10.256;2022-07-04T13:29:36;32.20;28.20
12329;DHT22;6230;52.390;10.256;2022-07-04T13:32:04;32.30;28.00
12329;DHT22;6230;52.390;10.256;2022-07-04T13:34:30;32.20;27.90
12329;DHT22;6230;52.390;10.256;2022-07-04T13:36:56;32.00;27.90
12329;DHT22;6230;52.390;10.256;2022-07-04T13:39:25;31.70;28.20
12329;DHT22;6230;52.390;10.256;2022-07-04T13:41:50;31.50;28.30
12329;DHT22;6230;52.390;10.256;2022-07-04T13:44:16;31.40;28.50
12329;DHT22;6230;52.390;10.256;2022-07-04T13:46:42;31.50;28.50
12329;DHT22;6230;52.390;10.256;2022-07-04T13:49:08;31.70;28.50
12329;DHT22;6230;52.390;10.256;2022-07-04T13:51:34;31.90;28.20
12329;DHT22;6230;52.390;10.256;2022-07-04T13:54:01;32.10;28.20
12329;DHT22;6230;52.390;10.256;2022-07-04T13:56:28;32.30;28.00
12329;DHT22;6230;52.390;10.256;2022-07-04T13:58:54;32.30;28.00
12329;DHT22;6230;52.390;10.256;2022-07-04T14:01:19;32.40;28.20
12329;DHT22;6230;52.390;10.256;2022-07-04T14:03:46;32.50;28.20
12329;DHT22;6230;52.390;10.256;2022-07-04T14:06:13;32.60;28.20
12329;DHT22;6230;52.390;10.256;2022-07-04T14:08:39;32.60;28.10
12329;DHT22;6230;52.390;10.256;2022-07-04T14:11:05;32.80;27.80
12329;DHT22;6230;52.390;10.256;2022-07-04T14:13:30;32.80;27.70
12329;DHT22;6230;52.390;10.256;2022-07-04T14:15:56;32.80;27.50
12329;DHT22;6230;52.390;10.256;2022-07-04T14:18:22;32.80;27.30
12329;DHT22;6230;52.390;10.256;2022-07-04T14:20:48;32.70;27.30
12329;DHT22;6230;52.390;10.256;2022-07-04T14:23:16;32.70;27.80
12329;DHT22;6230;52.390;10.256;2022-07-04T14:26:01;32.60;27.30
12329;DHT22;6230;52.390;10.256;2022-07-04T14:28:28;32.40;27.50
12329;DHT22;6230;52.390;10.256;2022-07-04T14:30:53;32.30;27.60
12329;DHT22;6230;52.390;10.256;2022-07-04T14:33:19;32.20;27.90
12329;DHT22;6230;52.390;10.256;2022-07-04T14:35:44;32.10;28.00
12329;DHT22;6230;52.390;10.256;2022-07-04T14:38:10;32.20;27.90
12329;DHT22;6230;52.390;10.256;2022-07-04T14:40:35;32.40;27.80
12329;DHT22;6230;52.390;10.256;2022-07-04T14:43:01;32.40;27.70
12329;DHT22;6230;52.390;10.256;2022-07-04T14:45:27;32.50;27.70
12329;DHT22;6230;52.390;10.256;2022-07-04T14:47:52;32.50;27.70
12329;DHT22;6230;52.390;10.256;2022-07-04T14:50:18;32.60;27.80
12329;DHT22;6230;52.390;10.256;2022-07-04T14:52:43;32.70;27.70
12329;DHT22;6230;52.390;10.256;2022-07-04T14:55:09;32.80;27.70
12329;DHT22;6230;52.390;10.256;2022-07-04T14:57:35;32.80;27.60
12329;DHT22;6230;52.390;10.256;2022-07-04T15:00:00;32.80;27.60
12329;DHT22;6230;52.390;10.256;2022-07-04T15:02:26;33.00;27.50
12329;DHT22;6230;52.390;10.256;2022-07-04T15:04:51;33.00;27.40
12329;DHT22;6230;52.390;10.256;2022-07-04T15:07:17;33.00;27.30
12329;DHT22;6230;52.390;10.256;2022-07-04T15:09:43;32.80;27.00
12329;DHT22;6230;52.390;10.256;2022-07-04T15:12:08;32.40;27.00
12329;DHT22;6230;52.390;10.256;2022-07-04T15:14:34;32.10;27.30
12329;DHT22;6230;52.390;10.256;2022-07-04T15:17:00;32.00;27.40
12329;DHT22;6230;52.390;10.256;2022-07-04T15:19:26;31.90;27.30
12329;DHT22;6230;52.390;10.256;2022-07-04T15:21:56;31.80;27.30
12329;DHT22;6230;52.390;10.256;2022-07-04T15:24:40;31.70;27.30
12329;DHT22;6230;52.390;10.256;2022-07-04T15:27:06;31.40;27.80
12329;DHT22;6230;52.390;10.256;2022-07-04T15:29:32;31.20;27.30
12329;DHT22;6230;52.390;10.256;2022-07-04T15:31:57;31.00;27.30
12329;DHT22;6230;52.390;10.256;2022-07-04T15:34:23;30.80;27.40
12329;DHT22;6230;52.390;10.256;2022-07-04T15:36:48;30.60;27.50
12329;DHT22;6230;52.390;10.256;2022-07-04T15:39:16;30.30;27.70
12329;DHT22;6230;52.390;10.256;2022-07-04T15:41:42;30.20;28.00
12329;DHT22;6230;52.390;10.256;2022-07-04T15:44:09;30.00;28.00
12329;DHT22;6230;52.390;10.256;2022-07-04T15:46:36;30.00;28.20
12329;DHT22;6230;52.390;10.256;2022-07-04T15:49:22;30.10;28.30
12329;DHT22;6230;52.390;10.256;2022-07-04T15:51:47;30.10;28.20
12329;DHT22;6230;52.390;10.256;2022-07-04T15:54:13;30.20;28.20
12329;DHT22;6230;52.390;10.256;2022-07-04T15:56:38;30.20;28.10
12329;DHT22;6230;52.390;10.256;2022-07-04T15:59:04;30.20;28.20